sensor_id;sensor_type;location;lat;lon;timestamp;P1;durP1;ratioP1;P2;durP2;ratioP2
42144;SDS011;27813;43.516;11.890;2023-03-23T00:02:45;6.45;;;3.42;;
42144;SDS011;27813;43.516;11.890;2023-03-23T00:06:48;5.47;;;3.80;;
42144;SDS011;27813;43.516;11.890;2023-03-23T00:10:54;7.32;;;4.03;;
42144;SDS011;27813;43.516;11.890;2023-03-23T00:15:03;5.97;;;3.53;;
42144;SDS011;27813;43.516;11.890;2023-03-23T00:19:15;6.70;;;3.45;;
42144;SDS011;27813;43.516;11.890;2023-03-23T00:23:24;6.00;;;4.00;;
42144;SDS011;27813;43.516;11.890;2023-03-23T00:27:30;9.95;;;4.47;;
42144;SDS011;27813;43.516;11.890;2023-03-23T06:10:05;39.00;;;8.53;;
42144;SDS011;27813;43.516;11.890;2023-03-23T06:14:14;30.80;;;8.55;;
42144;SDS011;27813;43.516;11.890;2023-03-23T06:18:18;21.10;;;7.90;;
42144;SDS011;27813;43.516;11.890;2023-03-23T06:22:40;26.73;;;8.60;;
42144;SDS011;27813;43.516;11.890;2023-03-23T06:26:52;21.90;;;10.10;;
42144;SDS011;27813;43.516;11.890;2023-03-23T06:31:04;27.30;;;10.93;;
42144;SDS011;27813;43.516;11.890;2023-03-23T06:35:10;31.90;;;9.18;;
42144;SDS011;27813;43.516;11.890;2023-03-23T06:39:54;19.58;;;7.93;;
42144;SDS011;27813;43.516;11.890;2023-03-23T06:44:18;22.63;;;7.97;;
42144;SDS011;27813;43.516;11.890;2023-03-23T06:48:22;48.92;;;9.63;;
42144;SDS011;27813;43.516;11.890;2023-03-23T06:52:28;22.90;;;8.45;;
42144;SDS011;27813;43.516;11.890;2023-03-23T06:56:31;28.85;;;8.95;;
42144;SDS011;27813;43.516;11.890;2023-03-23T07:00:34;37.28;;;9.60;;
42144;SDS011;27813;43.516;11.890;2023-03-23T07:04:39;32.13;;;11.70;;
42144;SDS011;27813;43.516;11.890;2023-03-23T07:08:47;47.40;;;15.70;;
42144;SDS011;27813;43.516;11.890;2023-03-23T07:12:55;42.10;;;17.02;;
42144;SDS011;27813;43.516;11.890;2023-03-23T07:17:01;54.58;;;18.55;;
42144;SDS011;27813;43.516;11.890;2023-03-23T07:21:10;58.35;;;20.60;;
42144;SDS011;27813;43.516;11.890;2023-03-23T07:25:15;57.47;;;19.75;;
42144;SDS011;27813;43.516;11.890;2023-03-23T07:29:26;42.75;;;15.60;;
42144;SDS011;27813;43.516;11.890;2023-03-23T07:33:39;34.45;;;14.35;;
42144;SDS011;27813;43.516;11.890;2023-03-23T07:37:44;34.83;;;15.10;;
42144;SDS011;27813;43.516;11.890;2023-03-23T07:41:58;31.60;;;14.75;;
42144;SDS011;27813;43.516;11.890;2023-03-23T07:46:18;32.95;;;14.45;;
42144;SDS011;27813;43.516;11.890;2023-03-23T07:50:32;44.30;;;17.27;;
42144;SDS011;27813;43.516;11.890;2023-03-23T07:54:41;35.08;;;16.05;;
42144;SDS011;27813;43.516;11.890;2023-03-23T07:58:54;28.83;;;15.15;;
42144;SDS011;27813;43.516;11.890;2023-03-23T08:02:58;27.83;;;14.10;;
42144;SDS011;27813;43.516;11.890;2023-03-23T08:07:09;22.13;;;12.77;;
42144;SDS011;27813;43.516;11.890;2023-03-23T08:11:31;23.77;;;14.25;;
42144;SDS011;27813;43.516;11.890;2023-03-23T08:15:55;22.23;;;12.35;;
42144;SDS011;27813;43.516;11.890;2023-03-23T08:20:15;18.63;;;12.02;;
42144;SDS011;27813;43.516;11.890;2023-03-23T08:24:42;17.60;;;9.93;;
42144;SDS011;27813;43.516;11.890;2023-03-23T08:29:01;16.23;;;9.63;;
42144;SDS011;27813;43.516;11.890;2023-03-23T08:33:26;16.25;;;9.82;;
42144;SDS011;27813;43.516;11.890;2023-03-23T08:37:50;13.60;;;8.95;;
42144;SDS011;27813;43.516;11.890;2023-03-23T08:42:14;13.40;;;8.73;;
42144;SDS011;27813;43.516;11.890;2023-03-23T08:46:27;12.10;;;9.10;;
42144;SDS011;27813;43.516;11.890;2023-03-23T08:50:42;12.63;;;7.93;;
42144;SDS011;27813;43.516;11.890;2023-03-23T08:55:00;12.48;;;8.50;;
42144;SDS011;27813;43.516;11.890;2023-03-23T08:59:32;12.45;;;8.10;;
42144;SDS011;27813;43.516;11.890;2023-03-23T09:03:52;11.63;;;8.68;;
42144;SDS011;27813;43.516;11.890;2023-03-23T09:08:21;19.50;;;10.90;;
42144;SDS011;27813;43.516;11.890;2023-03-23T09:12:24;12.25;;;7.68;;
42144;SDS011;27813;43.516;11.890;2023-03-23T09:16:27;11.38;;;8.05;;
42144;SDS011;27813;43.516;11.890;2023-03-23T09:20:30;11.80;;;6.75;;
42144;SDS011;27813;43.516;11.890;2023-03-23T09:24:33;10.98;;;7.50;;
42144;SDS011;27813;43.516;11.890;2023-03-23T09:28:37;10.40;;;7.28;;
42144;SDS011;27813;43.516;11.890;2023-03-23T09:32:40;11.30;;;7.13;;
42144;SDS011;27813;43.516;11.890;2023-03-23T09:36:45;10.70;;;7.50;;
42144;SDS011;27813;43.516;11.890;2023-03-23T09:40:58;11.25;;;8.02;;
42144;SDS011;27813;43.516;11.890;2023-03-23T09:49:45;12.45;;;7.43;;
42144;SDS011;27813;43.516;11.890;2023-03-23T09:53:59;15.55;;;9.52;;
42144;SDS011;27813;43.516;11.890;2023-03-23T10:02:30;11.57;;;8.60;;
42144;SDS011;27813;43.516;11.890;2023-03-23T10:06:58;16.42;;;8.50;;
42144;SDS011;27813;43.516;11.890;2023-03-23T10:11:19;13.18;;;8.60;;
42144;SDS011;27813;43.516;11.890;2023-03-23T10:15:39;15.70;;;8.50;;
42144;SDS011;27813;43.516;11.890;2023-03-23T10:19:47;12.00;;;8.30;;
42144;SDS011;27813;43.516;11.890;2023-03-23T10:24:00;16.17;;;9.68;;
42144;SDS011;27813;43.516;11.890;2023-03-23T10:28:19;16.70;;;9.80;;
42144;SDS011;27813;43.516;11.890;2023-03-23T10:33:29;14.05;;;9.05;;
42144;SDS011;27813;43.516;11.890;2023-03-23T10:41:25;11.38;;;7.45;;
42144;SDS011;27813;43.516;11.890;2023-03-23T10:45:29;9.07;;;6.82;;
42144;SDS011;27813;43.516;11.890;2023-03-23T10:49:41;9.32;;;6.45;;
42144;SDS011;27813;43.516;11.890;2023-03-23T10:53:51;11.27;;;6.85;;
42144;SDS011;27813;43.516;11.890;2023-03-23T10:58:21;10.18;;;6.15;;
42144;SDS011;27813;43.516;11.890;2023-03-23T11:02:29;11.02;;;6.28;;
42144;SDS011;27813;43.516;11.890;2023-03-23T11:11:28;7.50;;;6.10;;
42144;SDS011;27813;43.516;11.890;2023-03-23T11:15:29;7.13;;;5.32;;
42144;SDS011;27813;43.516;11.890;2023-03-23T11:19:34;6.80;;;4.70;;
42144;SDS011;27813;43.516;11.890;2023-03-23T11:23:40;5.13;;;4.40;;
42144;SDS011;27813;43.516;11.890;2023-03-23T11:27:53;5.22;;;3.30;;
42144;SDS011;27813;43.516;11.890;2023-03-23T11:36:02;5.20;;;3.33;;
42144;SDS011;27813;43.516;11.890;2023-03-23T11:44:11;3.30;;;3.00;;
42144;SDS011;27813;43.516;11.890;2023-03-23T11:52:40;5.95;;;3.03;;
42144;SDS011;27813;43.516;11.890;2023-03-23T11:56:47;3.33;;;2.72;;
42144;SDS011;27813;43.516;11.890;2023-03-23T12:00:57;4.22;;;3.15;;
42144;SDS011;27813;43.516;11.890;2023-03-23T12:05:13;6.20;;;2.78;;
42144;SDS011;27813;43.516;11.890;2023-03-23T12:09:48;2.65;;;2.10;;
42144;SDS011;27813;43.516;11.890;2023-03-23T12:14:11;6.30;;;3.00;;
42144;SDS011;27813;43.516;11.890;2023-03-23T12:18:43;3.15;;;2.30;;
42144;SDS011;27813;43.516;11.890;2023-03-23T12:23:12;3.97;;;2.85;;
42144;SDS011;27813;43.516;11.890;2023-03-23T12:27:31;3.78;;;2.47;;
42144;SDS011;27813;43.516;11.890;2023-03-23T12:40:18;3.45;;;2.65;;
42144;SDS011;27813;43.516;11.890;2023-03-23T12:44:35;5.10;;;3.15;;
42144;SDS011;27813;43.516;11.890;2023-03-23T12:48:46;5.35;;;3.05;;
42144;SDS011;27813;43.516;11.890;2023-03-23T13:01:32;11.73;;;6.03;;
42144;SDS011;27813;43.516;11.890;2023-03-23T13:10:12;4.50;;;3.00;;
42144;SDS011;27813;43.516;11.890;2023-03-23T13:14:24;4.72;;;3.28;;
42144;SDS011;27813;43.516;11.890;2023-03-23T13:18:52;5.10;;;2.85;;
42144;SDS011;27813;43.516;11.890;2023-03-23T13:23:08;3.17;;;2.53;;
42144;SDS011;27813;43.516;11.890;2023-03-23T13:27:15;6.70;;;2.70;;
42144;SDS011;27813;43.516;11.890;2023-03-23T13:31:32;3.35;;;2.53;;
42144;SDS011;27813;43.516;11.890;2023-03-23T13:35:41;5.57;;;2.40;;
42144;SDS011;27813;43.516;11.890;2023-03-23T13:39:49;4.05;;;2.40;;
42144;SDS011;27813;43.516;11.890;2023-03-23T13:44:06;6.22;;;3.00;;
42144;SDS011;27813;43.516;11.890;2023-03-23T13:48:22;4.45;;;2.30;;
42144;SDS011;27813;43.516;11.890;2023-03-23T13:56:46;4.22;;;2.13;;
42144;SDS011;27813;43.516;11.890;2023-03-23T14:01:18;4.85;;;2.47;;
42144;SDS011;27813;43.516;11.890;2023-03-23T14:10:04;3.78;;;2.38;;
42144;SDS011;27813;43.516;11.890;2023-03-23T14:14:26;3.42;;;2.35;;
42144;SDS011;27813;43.516;11.890;2023-03-23T14:18:42;3.50;;;2.33;;
42144;SDS011;27813;43.516;11.890;2023-03-23T14:22:55;5.13;;;2.60;;
42144;SDS011;27813;43.516;11.890;2023-03-23T14:31:25;4.32;;;2.30;;
42144;SDS011;27813;43.516;11.890;2023-03-23T14:35:34;3.50;;;1.83;;
42144;SDS011;27813;43.516;11.890;2023-03-23T14:39:43;2.95;;;2.00;;
42144;SDS011;27813;43.516;11.890;2023-03-23T14:43:48;2.97;;;1.88;;
42144;SDS011;27813;43.516;11.890;2023-03-23T14:47:52;5.43;;;2.03;;
42144;SDS011;27813;43.516;11.890;2023-03-23T14:52:02;4.18;;;1.88;;
42144;SDS011;27813;43.516;11.890;2023-03-23T14:56:34;3.47;;;2.22;;
42144;SDS011;27813;43.516;11.890;2023-03-23T15:00:39;3.63;;;2.60;;
42144;SDS011;27813;43.516;11.890;2023-03-23T15:04:47;3.55;;;2.40;;
42144;SDS011;27813;43.516;11.890;2023-03-23T15:08:54;4.82;;;3.00;;
42144;SDS011;27813;43.516;11.890;2023-03-23T15:13:00;4.95;;;3.00;;
42144;SDS011;27813;43.516;11.890;2023-03-23T15:17:03;3.80;;;2.80;;
42144;SDS011;27813;43.516;11.890;2023-03-23T15:26:34;3.92;;;2.60;;
42144;SDS011;27813;43.516;11.890;2023-03-23T15:36:07;4.30;;;2.15;;
42144;SDS011;27813;43.516;11.890;2023-03-23T15:44:24;2.95;;;1.70;;
42144;SDS011;27813;43.516;11.890;2023-03-23T15:48:44;3.53;;;2.10;;
42144;SDS011;27813;43.516;11.890;2023-03-23T15:52:49;2.75;;;1.75;;
42144;SDS011;27813;43.516;11.890;2023-03-23T15:56:53;4.07;;;1.92;;
42144;SDS011;27813;43.516;11.890;2023-03-23T16:00:56;8.37;;;5.43;;
42144;SDS011;27813;43.516;11.890;2023-03-23T16:05:04;7.93;;;5.88;;
42144;SDS011;27813;43.516;11.890;2023-03-23T16:09:19;10.73;;;5.50;;
42144;SDS011;27813;43.516;11.890;2023-03-23T16:13:24;5.00;;;3.30;;
42144;SDS011;27813;43.516;11.890;2023-03-23T16:17:30;4.53;;;3.00;;
42144;SDS011;27813;43.516;11.890;2023-03-23T16:21:35;3.72;;;2.75;;
42144;SDS011;27813;43.516;11.890;2023-03-23T16:25:41;4.03;;;2.20;;
42144;SDS011;27813;43.516;11.890;2023-03-23T16:29:53;4.45;;;2.42;;
42144;SDS011;27813;43.516;11.890;2023-03-23T16:34:07;3.22;;;2.33;;
42144;SDS011;27813;43.516;11.890;2023-03-23T16:38:17;2.90;;;2.40;;
42144;SDS011;27813;43.516;11.890;2023-03-23T16:42:25;3.72;;;2.05;;
42144;SDS011;27813;43.516;11.890;2023-03-23T16:46:33;5.95;;;2.55;;
42144;SDS011;27813;43.516;11.890;2023-03-23T16:50:39;3.45;;;2.40;;
42144;SDS011;27813;43.516;11.890;2023-03-23T16:54:47;5.70;;;2.75;;
42144;SDS011;27813;43.516;11.890;2023-03-23T16:58:52;4.38;;;3.08;;
42144;SDS011;27813;43.516;11.890;2023-03-23T17:03:00;4.30;;;2.40;;
42144;SDS011;27813;43.516;11.890;2023-03-23T17:07:05;3.60;;;2.40;;
42144;SDS011;27813;43.516;11.890;2023-03-23T17:11:10;3.75;;;2.50;;
42144;SDS011;27813;43.516;11.890;2023-03-23T17:15:15;4.53;;;2.30;;
42144;SDS011;27813;43.516;11.890;2023-03-23T17:19:20;4.78;;;2.17;;
42144;SDS011;27813;43.516;11.890;2023-03-23T17:23:28;3.13;;;2.10;;
42144;SDS011;27813;43.516;11.890;2023-03-23T17:27:39;5.57;;;3.97;;
42144;SDS011;27813;43.516;11.890;2023-03-23T17:31:45;30.10;;;10.00;;
42144;SDS011;27813;43.516;11.890;2023-03-23T17:39:54;28.35;;;15.55;;
42144;SDS011;27813;43.516;11.890;2023-03-23T17:44:01;14.93;;;9.68;;
42144;SDS011;27813;43.516;11.890;2023-03-23T17:48:07;10.43;;;7.10;;
42144;SDS011;27813;43.516;11.890;2023-03-23T17:52:11;14.02;;;7.80;;
42144;SDS011;27813;43.516;11.890;2023-03-23T17:56:17;9.30;;;6.40;;
42144;SDS011;27813;43.516;11.890;2023-03-23T18:00:22;7.30;;;4.25;;
42144;SDS011;27813;43.516;11.890;2023-03-23T18:04:32;6.53;;;4.28;;
42144;SDS011;27813;43.516;11.890;2023-03-23T18:08:37;7.93;;;5.07;;
42144;SDS011;27813;43.516;11.890;2023-03-23T18:12:41;7.60;;;4.18;;
42144;SDS011;27813;43.516;11.890;2023-03-23T18:16:46;5.15;;;3.58;;
42144;SDS011;27813;43.516;11.890;2023-03-23T18:20:55;9.38;;;5.22;;
42144;SDS011;27813;43.516;11.890;2023-03-23T18:25:09;9.45;;;5.57;;
42144;SDS011;27813;43.516;11.890;2023-03-23T18:29:13;11.85;;;6.63;;
42144;SDS011;27813;43.516;11.890;2023-03-23T18:37:23;16.58;;;8.32;;
42144;SDS011;27813;43.516;11.890;2023-03-23T18:45:32;7.43;;;4.88;;
42144;SDS011;27813;43.516;11.890;2023-03-23T18:49:37;9.95;;;6.00;;
42144;SDS011;27813;43.516;11.890;2023-03-23T18:57:49;13.27;;;8.45;;
42144;SDS011;27813;43.516;11.890;2023-03-23T19:07:00;10.45;;;5.57;;
42144;SDS011;27813;43.516;11.890;2023-03-23T19:13:26;12.50;;;4.85;;
42144;SDS011;27813;43.516;11.890;2023-03-23T19:29:44;6.30;;;3.83;;
42144;SDS011;27813;43.516;11.890;2023-03-23T19:33:49;5.75;;;3.97;;
42144;SDS011;27813;43.516;11.890;2023-03-23T19:37:55;8.30;;;4.93;;
42144;SDS011;27813;43.516;11.890;2023-03-23T19:42:03;12.02;;;5.50;;
42144;SDS011;27813;43.516;11.890;2023-03-23T19:46:09;8.93;;;4.95;;
42144;SDS011;27813;43.516;11.890;2023-03-23T19:50:19;5.97;;;4.00;;
42144;SDS011;27813;43.516;11.890;2023-03-23T19:54:24;7.20;;;5.05;;
42144;SDS011;27813;43.516;11.890;2023-03-23T19:58:32;6.90;;;4.22;;
42144;SDS011;27813;43.516;11.890;2023-03-23T20:02:37;6.80;;;4.60;;
42144;SDS011;27813;43.516;11.890;2023-03-23T20:06:42;10.57;;;6.45;;
42144;SDS011;27813;43.516;11.890;2023-03-23T20:10:51;8.73;;;5.10;;
42144;SDS011;27813;43.516;11.890;2023-03-23T20:15:05;13.82;;;6.18;;
42144;SDS011;27813;43.516;11.890;2023-03-23T20:19:12;13.90;;;7.28;;
42144;SDS011;27813;43.516;11.890;2023-03-23T20:23:31;16.15;;;8.75;;
42144;SDS011;27813;43.516;11.890;2023-03-23T20:27:37;11.27;;;6.97;;
42144;SDS011;27813;43.516;11.890;2023-03-23T20:31:46;19.90;;;10.73;;
42144;SDS011;27813;43.516;11.890;2023-03-23T20:35:55;14.60;;;8.95;;
42144;SDS011;27813;43.516;11.890;2023-03-23T20:40:05;12.10;;;7.60;;
42144;SDS011;27813;43.516;11.890;2023-03-23T20:44:12;13.80;;;7.63;;
42144;SDS011;27813;43.516;11.890;2023-03-23T20:48:21;16.30;;;9.70;;
42144;SDS011;27813;43.516;11.890;2023-03-23T20:52:35;13.35;;;8.35;;
42144;SDS011;27813;43.516;11.890;2023-03-23T21:01:24;10.38;;;5.50;;
42144;SDS011;27813;43.516;11.890;2023-03-23T21:05:29;10.02;;;6.32;;
42144;SDS011;27813;43.516;11.890;2023-03-23T21:09:44;9.32;;;5.40;;
42144;SDS011;27813;43.516;11.890;2023-03-23T21:13:49;5.55;;;3.75;;
42144;SDS011;27813;43.516;11.890;2023-03-23T21:17:54;6.70;;;4.05;;
42144;SDS011;27813;43.516;11.890;2023-03-23T21:22:01;7.68;;;5.07;;
42144;SDS011;27813;43.516;11.890;2023-03-23T21:26:21;8.52;;;5.47;;
42144;SDS011;27813;43.516;11.890;2023-03-23T21:30:42;11.88;;;6.25;;
42144;SDS011;27813;43.516;11.890;2023-03-23T21:34:54;8.95;;;5.63;;
42144;SDS011;27813;43.516;11.890;2023-03-23T21:39:04;7.18;;;4.22;;
42144;SDS011;27813;43.516;11.890;2023-03-23T21:47:39;5.88;;;3.72;;
42144;SDS011;27813;43.516;11.890;2023-03-23T21:51:48;5.38;;;3.50;;
42144;SDS011;27813;43.516;11.890;2023-03-23T21:55:55;6.00;;;3.92;;
42144;SDS011;27813;43.516;11.890;2023-03-23T22:00:06;6.22;;;3.47;;
42144;SDS011;27813;43.516;11.890;2023-03-23T22:04:18;8.80;;;4.03;;
42144;SDS011;27813;43.516;11.890;2023-03-23T22:08:25;5.32;;;3.60;;
42144;SDS011;27813;43.516;11.890;2023-03-23T22:12:34;5.75;;;3.28;;
42144;SDS011;27813;43.516;11.890;2023-03-23T22:16:42;6.07;;;3.78;;
42144;SDS011;27813;43.516;11.890;2023-03-23T22:20:47;7.30;;;4.88;;
42144;SDS011;27813;43.516;11.890;2023-03-23T22:24:51;5.60;;;3.60;;
42144;SDS011;27813;43.516;11.890;2023-03-23T22:28:56;4.60;;;3.17;;
42144;SDS011;27813;43.516;11.890;2023-03-23T22:33:06;5.95;;;3.05;;
42144;SDS011;27813;43.516;11.890;2023-03-23T22:37:24;4.25;;;3.03;;
42144;SDS011;27813;43.516;11.890;2023-03-23T22:42:01;3.92;;;2.80;;
42144;SDS011;27813;43.516;11.890;2023-03-23T22:46:24;4.53;;;2.80;;
42144;SDS011;27813;43.516;11.890;2023-03-23T22:50:32;3.25;;;2.45;;
42144;SDS011;27813;43.516;11.890;2023-03-23T22:54:44;4.25;;;2.85;;
42144;SDS011;27813;43.516;11.890;2023-03-23T22:58:53;5.15;;;3.08;;
42144;SDS011;27813;43.516;11.890;2023-03-23T23:03:04;5.65;;;3.22;;
42144;SDS011;27813;43.516;11.890;2023-03-23T23:07:43;4.10;;;2.85;;
42144;SDS011;27813;43.516;11.890;2023-03-23T23:11:56;4.20;;;2.78;;
42144;SDS011;27813;43.516;11.890;2023-03-23T23:16:55;4.00;;;2.83;;
42144;SDS011;27813;43.516;11.890;2023-03-23T23:21:58;5.72;;;2.90;;
42144;SDS011;27813;43.516;11.890;2023-03-23T23:26:24;4.20;;;3.17;;
42144;SDS011;27813;43.516;11.890;2023-03-23T23:31:18;6.90;;;3.50;;
42144;SDS011;27813;43.516;11.890;2023-03-23T23:40:34;5.75;;;3.10;;
42144;SDS011;27813;43.516;11.890;2023-03-23T23:45:40;4.85;;;2.47;;
42144;SDS011;27813;43.516;11.890;2023-03-23T23:50:02;5.72;;;2.65;;
42144;SDS011;27813;43.516;11.890;2023-03-23T23:54:29;3.63;;;2.35;;
42144;SDS011;27813;43.516;11.890;2023-03-23T23:59:07;4.18;;;2.70;;
